Time;durP1;ratioP1;P1;durP2;ratioP2;P2;SDS_P1;SDS_P2;PMS_P1;PMS_P2;Temp;Humidity;BMP_temperature;BMP_pressure;BME280_temperature;BME280_humidity;BME280_pressure;Samples;Min_cycle;Max_cycle;Signal;HPM_P1;HPM_P2
2020/12/26 00:00:48;;;;;;;;;;;7.50;91.80;;;;;;5048607;28;20356;-69
2020/12/26 00:03:15;;;;;;;;;;;7.40;91.70;;;;;;5047216;28;19925;-69
2020/12/26 00:05:41;;;;;;;;;;;7.50;91.70;;;;;;5052482;28;20011;-69
2020/12/26 00:08:07;;;;;;;;;;;7.50;91.70;;;;;;5042101;28;19936;-69
2020/12/26 00:10:33;;;;;;;;;;;7.40;91.80;;;;;;5047357;28;19935;-69
2020/12/26 00:12:59;;;;;;;;;;;7.50;91.80;;;;;;5041656;28;20395;-69
2020/12/26 00:15:26;;;;;;;;;;;7.50;91.80;;;;;;5042626;28;19935;-69
2020/12/26 00:17:53;;;;;;;;;;;7.50;91.80;;;;;;5049274;28;19990;-69
2020/12/26 00:20:19;;;;;;;;;;;7.50;91.80;;;;;;5047227;28;19925;-69
2020/12/26 00:22:45;;;;;;;;;;;7.50;91.70;;;;;;5042632;28;20229;-69
2020/12/26 00:25:12;;;;;;;;;;;7.40;91.80;;;;;;5046647;28;19925;-69
2020/12/26 00:27:38;;;;;;;;;;;7.40;91.50;;;;;;5038190;28;19925;-69
2020/12/26 00:30:06;;;;;;;;;;;7.50;91.30;;;;;;5046056;28;20031;-69
2020/12/26 00:32:34;;;;;;;;;;;7.40;91.50;;;;;;5052919;28;19932;-69
2020/12/26 00:35:00;;;;;;;;;;;7.40;91.70;;;;;;5038837;28;19928;-69
2020/12/26 00:37:26;;;;;;;;;;;7.30;91.90;;;;;;5049046;28;19924;-69
2020/12/26 00:39:52;;;;;;;;;;;7.30;91.60;;;;;;5050412;28;19935;-69
2020/12/26 00:42:19;;;;;;;;;;;7.30;91.80;;;;;;5046600;28;19925;-69
2020/12/26 00:44:45;;;;;;;;;;;7.40;91.80;;;;;;5046238;28;20412;-69
2020/12/26 00:47:11;;;;;;;;;;;7.40;91.80;;;;;;5052369;28;20085;-69
2020/12/26 00:49:38;;;;;;;;;;;7.30;91.80;;;;;;5039828;28;19933;-69
2020/12/26 00:52:05;;;;;;;;;;;7.40;91.70;;;;;;5052104;28;19934;-69
2020/12/26 00:54:31;;;;;;;;;;;7.30;91.60;;;;;;5039231;28;20442;-69
2020/12/26 00:56:57;;;;;;;;;;;7.30;91.70;;;;;;5044583;28;20004;-69
2020/12/26 00:59:23;;;;;;;;;;;7.30;91.70;;;;;;5049087;28;19994;-69
2020/12/26 01:01:53;;;;;;;;;;;7.30;91.70;;;;;;5044066;28;20266;-69
2020/12/26 01:04:19;;;;;;;;;;;7.30;91.70;;;;;;5049475;28;19929;-69
2020/12/26 01:06:51;;;;;;;;;;;7.30;91.80;;;;;;5039246;28;19925;-69
2020/12/26 01:09:17;;;;;;;;;;;7.30;91.60;;;;;;5033853;28;19925;-69
2020/12/26 01:11:44;;;;;;;;;;;7.30;91.50;;;;;;5045953;28;20016;-69
2020/12/26 01:14:10;;;;;;;;;;;7.30;91.40;;;;;;5038845;28;20355;-69
2020/12/26 01:16:36;;;;;;;;;;;7.20;91.30;;;;;;5050861;28;19929;-69
2020/12/26 01:19:02;;;;;;;;;;;7.20;91.50;;;;;;5041946;28;19924;-69
2020/12/26 01:21:28;;;;;;;;;;;7.10;91.80;;;;;;5043982;28;19931;-69
2020/12/26 01:23:55;;;;;;;;;;;7.20;92.00;;;;;;5045000;28;20360;-69
2020/12/26 01:26:22;;;;;;;;;;;7.20;91.70;;;;;;5043249;28;19931;-69
2020/12/26 01:28:48;;;;;;;;;;;7.10;91.70;;;;;;5054181;28;19929;-70
2020/12/26 01:31:14;;;;;;;;;;;7.10;91.70;;;;;;5055940;28;19925;-69
2020/12/26 01:33:40;;;;;;;;;;;7.10;91.90;;;;;;5042533;28;19925;-69
2020/12/26 01:36:10;;;;;;;;;;;7.10;91.80;;;;;;5053945;28;19924;-69
2020/12/26 01:38:36;;;;;;;;;;;7.20;91.70;;;;;;5048590;28;19925;-70
2020/12/26 01:41:03;;;;;;;;;;;7.10;91.40;;;;;;5049126;28;20010;-69
2020/12/26 01:43:30;;;;;;;;;;;7.20;91.50;;;;;;5047488;28;19925;-69
2020/12/26 01:45:56;;;;;;;;;;;7.10;91.50;;;;;;5051358;28;19935;-69
2020/12/26 01:48:22;;;;;;;;;;;7.20;91.60;;;;;;5047791;28;20267;-69
2020/12/26 01:50:51;;;;;;;;;;;7.10;91.40;;;;;;5050871;28;19924;-69
2020/12/26 01:53:17;;;;;;;;;;;7.10;91.50;;;;;;5043267;28;19932;-69
2020/12/26 01:55:43;;;;;;;;;;;7.10;91.60;;;;;;5041820;28;19935;-69
2020/12/26 01:58:13;;;;;;;;;;;7.10;91.50;;;;;;5054551;28;19924;-70
2020/12/26 02:00:39;;;;;;;;;;;7.10;91.50;;;;;;5052434;28;19936;-69
2020/12/26 02:03:05;;;;;;;;;;;7.10;91.30;;;;;;5051884;28;19931;-69
2020/12/26 02:05:32;;;;;;;;;;;7.10;91.40;;;;;;5044991;28;20012;-69
2020/12/26 02:07:58;;;;;;;;;;;7.10;91.20;;;;;;5049247;28;20020;-70
2020/12/26 02:10:24;;;;;;;;;;;7.10;91.30;;;;;;5054113;28;19939;-69
2020/12/26 02:12:51;;;;;;;;;;;7.20;91.10;;;;;;5044054;28;20019;-69
2020/12/26 02:15:18;;;;;;;;;;;7.10;91.00;;;;;;5050598;28;20319;-69
2020/12/26 02:17:44;;;;;;;;;;;7.10;90.90;;;;;;5054876;28;20309;-70
2020/12/26 02:20:10;;;;;;;;;;;7.10;91.10;;;;;;5040677;28;20265;-69
2020/12/26 02:22:36;;;;;;;;;;;7.00;91.00;;;;;;5047556;28;19924;-69
2020/12/26 02:25:03;;;;;;;;;;;7.00;91.30;;;;;;5051409;28;19925;-69
2020/12/26 02:27:30;;;;;;;;;;;7.00;91.20;;;;;;5044295;28;19978;-69
2020/12/26 02:29:56;;;;;;;;;;;7.00;91.30;;;;;;5048648;28;19986;-69
2020/12/26 02:32:22;;;;;;;;;;;7.00;91.60;;;;;;5054462;28;19928;-69
2020/12/26 02:34:48;;;;;;;;;;;7.00;91.70;;;;;;5042161;28;20027;-69
2020/12/26 02:37:14;;;;;;;;;;;7.00;91.80;;;;;;5051455;28;19925;-69
2020/12/26 02:39:41;;;;;;;;;;;7.00;91.70;;;;;;5052996;28;19935;-69
2020/12/26 02:42:08;;;;;;;;;;;7.00;91.30;;;;;;5049306;28;19935;-69
2020/12/26 02:44:34;;;;;;;;;;;7.00;91.30;;;;;;5052254;28;19928;-69
2020/12/26 02:47:00;;;;;;;;;;;7.00;91.30;;;;;;5053750;28;19943;-69
2020/12/26 02:49:26;;;;;;;;;;;7.10;91.40;;;;;;5042507;28;20377;-69
2020/12/26 02:51:53;;;;;;;;;;;7.10;91.30;;;;;;5042551;28;19925;-69
2020/12/26 02:54:19;;;;;;;;;;;7.10;91.30;;;;;;5047458;28;19925;-69
2020/12/26 02:56:45;;;;;;;;;;;7.10;91.40;;;;;;5045204;28;19924;-69
2020/12/26 02:59:12;;;;;;;;;;;7.00;91.20;;;;;;5052981;28;20315;-69
2020/12/26 03:01:39;;;;;;;;;;;7.00;91.30;;;;;;5053883;28;19982;-69
2020/12/26 03:04:05;;;;;;;;;;;7.10;91.10;;;;;;5052668;28;19982;-69
2020/12/26 03:06:31;;;;;;;;;;;7.00;91.30;;;;;;5038925;28;19925;-69
2020/12/26 03:08:58;;;;;;;;;;;7.00;91.30;;;;;;5044410;28;19978;-69
2020/12/26 03:11:24;;;;;;;;;;;7.00;91.10;;;;;;5053807;28;19939;-69
2020/12/26 03:13:50;;;;;;;;;;;7.00;90.70;;;;;;5040523;28;19925;-69
2020/12/26 03:16:18;;;;;;;;;;;7.00;90.60;;;;;;5049643;28;19924;-69
2020/12/26 03:18:44;;;;;;;;;;;7.00;90.60;;;;;;5052781;28;19924;-69
2020/12/26 03:21:11;;;;;;;;;;;7.00;90.40;;;;;;5053045;28;19986;-69
2020/12/26 03:23:37;;;;;;;;;;;7.00;90.70;;;;;;5040170;28;19925;-69
2020/12/26 03:26:03;;;;;;;;;;;6.90;90.90;;;;;;5051623;28;20405;-69
2020/12/26 03:28:29;;;;;;;;;;;6.90;90.70;;;;;;5051735;28;20028;-69
2020/12/26 03:30:56;;;;;;;;;;;6.90;90.70;;;;;;5041815;28;19951;-70
2020/12/26 03:33:23;;;;;;;;;;;6.90;90.70;;;;;;5051680;28;20019;-69
2020/12/26 03:35:49;;;;;;;;;;;6.90;90.80;;;;;;5044452;28;19925;-69
2020/12/26 03:38:15;;;;;;;;;;;6.90;90.30;;;;;;5047182;28;19936;-69
2020/12/26 03:40:41;;;;;;;;;;;6.90;90.80;;;;;;5047515;28;20000;-69
2020/12/26 03:43:07;;;;;;;;;;;6.90;90.40;;;;;;5048564;28;19928;-69
2020/12/26 03:45:34;;;;;;;;;;;6.80;90.50;;;;;;5047425;28;20365;-69
2020/12/26 03:48:00;;;;;;;;;;;6.70;90.70;;;;;;5051395;28;19925;-69
2020/12/26 03:50:27;;;;;;;;;;;6.70;90.80;;;;;;5053174;28;20003;-69
2020/12/26 03:52:53;;;;;;;;;;;6.80;90.90;;;;;;5039838;28;19989;-69
2020/12/26 03:55:19;;;;;;;;;;;6.80;90.90;;;;;;5052712;28;19935;-69
2020/12/26 03:57:46;;;;;;;;;;;6.80;90.40;;;;;;5041911;28;23087;-69
2020/12/26 04:00:12;;;;;;;;;;;6.80;90.30;;;;;;5043168;28;20332;-69
2020/12/26 04:02:38;;;;;;;;;;;6.80;90.50;;;;;;5048884;28;19933;-69
2020/12/26 04:05:04;;;;;;;;;;;6.70;90.50;;;;;;5043193;28;19925;-69
2020/12/26 04:07:31;;;;;;;;;;;6.70;91.10;;;;;;5041016;28;19924;-69
2020/12/26 04:09:57;;;;;;;;;;;6.80;91.50;;;;;;5049115;28;19929;-69
2020/12/26 04:12:24;;;;;;;;;;;6.80;91.30;;;;;;5049293;28;20713;-70
2020/12/26 04:14:50;;;;;;;;;;;6.80;91.50;;;;;;5042347;28;20012;-70
2020/12/26 04:17:16;;;;;;;;;;;6.80;91.10;;;;;;5048469;28;19943;-70
2020/12/26 04:19:42;;;;;;;;;;;6.80;91.60;;;;;;5052386;28;19955;-70
2020/12/26 04:22:08;;;;;;;;;;;6.90;91.00;;;;;;5049552;28;19925;-69
2020/12/26 04:24:36;;;;;;;;;;;6.90;91.00;;;;;;5042194;28;19924;-69
2020/12/26 04:27:02;;;;;;;;;;;6.90;90.70;;;;;;5050072;28;19989;-69
2020/12/26 04:29:28;;;;;;;;;;;6.90;91.10;;;;;;5042913;28;20355;-69
2020/12/26 04:31:54;;;;;;;;;;;6.90;90.70;;;;;;5046528;28;19932;-69
2020/12/26 04:34:20;;;;;;;;;;;6.90;90.60;;;;;;5052029;28;19943;-69
2020/12/26 04:36:47;;;;;;;;;;;7.00;91.00;;;;;;5038999;28;19937;-69
2020/12/26 04:39:13;;;;;;;;;;;6.90;90.70;;;;;;5049844;28;19944;-69
2020/12/26 04:41:40;;;;;;;;;;;7.00;90.60;;;;;;5041489;28;20015;-69
2020/12/26 04:44:07;;;;;;;;;;;7.00;90.60;;;;;;5049317;28;19935;-69
2020/12/26 04:46:35;;;;;;;;;;;7.00;90.40;;;;;;5046530;28;20091;-69
2020/12/26 04:49:03;;;;;;;;;;;7.10;90.70;;;;;;5052259;28;19978;-69
2020/12/26 04:51:32;;;;;;;;;;;7.10;90.40;;;;;;5051959;28;19928;-69
2020/12/26 04:54:01;;;;;;;;;;;7.00;90.40;;;;;;5041510;28;19932;-69
2020/12/26 04:56:33;;;;;;;;;;;7.00;90.40;;;;;;5045119;28;19925;-69
2020/12/26 04:59:00;;;;;;;;;;;7.10;90.20;;;;;;5049711;28;19929;-69
2020/12/26 05:01:28;;;;;;;;;;;7.10;90.10;;;;;;5055459;28;20359;-69
2020/12/26 05:03:55;;;;;;;;;;;7.10;90.20;;;;;;5055748;28;20020;-70
2020/12/26 05:06:24;;;;;;;;;;;7.10;90.00;;;;;;5041531;28;19925;-70
2020/12/26 05:08:51;;;;;;;;;;;7.10;89.80;;;;;;5047012;28;20062;-70
2020/12/26 05:11:19;;;;;;;;;;;7.10;90.30;;;;;;5056038;28;19978;-69
2020/12/26 05:13:46;;;;;;;;;;;7.10;89.70;;;;;;5042834;28;19935;-70
2020/12/26 05:16:13;;;;;;;;;;;7.10;89.80;;;;;;5051782;28;19924;-70
2020/12/26 05:18:39;;;;;;;;;;;7.10;90.10;;;;;;5050654;28;19924;-70
2020/12/26 05:21:06;;;;;;;;;;;7.10;89.80;;;;;;5047765;28;20374;-69
2020/12/26 05:23:32;;;;;;;;;;;7.10;90.00;;;;;;5045630;28;20995;-70
2020/12/26 05:25:59;;;;;;;;;;;7.10;89.80;;;;;;5055378;28;19928;-69
2020/12/26 05:28:27;;;;;;;;;;;7.00;90.10;;;;;;5053628;28;19940;-69
2020/12/26 05:30:53;;;;;;;;;;;7.00;89.50;;;;;;5045121;28;19936;-69
2020/12/26 05:33:20;;;;;;;;;;;6.90;89.50;;;;;;5054983;28;19925;-69
2020/12/26 05:35:48;;;;;;;;;;;6.90;90.00;;;;;;5049887;28;19937;-69
2020/12/26 05:38:15;;;;;;;;;;;6.90;89.70;;;;;;5045270;28;19925;-70
2020/12/26 05:40:48;;;;;;;;;;;6.80;89.80;;;;;;5051588;28;19935;-69
2020/12/26 05:43:15;;;;;;;;;;;6.80;90.10;;;;;;5055508;28;19933;-70
2020/12/26 05:45:42;;;;;;;;;;;6.80;90.20;;;;;;5050242;28;19933;-69
2020/12/26 05:48:08;;;;;;;;;;;6.80;90.30;;;;;;5047735;28;19947;-69
2020/12/26 05:50:35;;;;;;;;;;;6.80;90.30;;;;;;5052145;28;20012;-69
2020/12/26 05:53:02;;;;;;;;;;;6.80;90.10;;;;;;5043688;28;19925;-69
2020/12/26 05:55:36;;;;;;;;;;;6.80;90.20;;;;;;5053681;28;20343;-69
2020/12/26 05:58:02;;;;;;;;;;;6.80;90.10;;;;;;5047709;28;19925;-69
2020/12/26 06:00:32;;;;;;;;;;;6.80;90.10;;;;;;5049927;28;20027;-70
2020/12/26 06:02:59;;;;;;;;;;;6.70;90.10;;;;;;5055053;28;19986;-69
2020/12/26 06:05:26;;;;;;;;;;;6.70;90.40;;;;;;5051517;28;19977;-69
2020/12/26 06:07:53;;;;;;;;;;;6.70;90.50;;;;;;5047117;28;19936;-69
2020/12/26 06:10:20;;;;;;;;;;;6.70;90.50;;;;;;5054796;28;19924;-69
2020/12/26 06:12:46;;;;;;;;;;;6.70;90.70;;;;;;5041644;28;19925;-69
2020/12/26 06:15:16;;;;;;;;;;;6.70;91.00;;;;;;5052422;28;19935;-69
2020/12/26 06:17:42;;;;;;;;;;;6.60;91.40;;;;;;5055042;28;19924;-69
2020/12/26 06:20:09;;;;;;;;;;;6.60;91.50;;;;;;5054081;28;19925;-68
2020/12/26 06:22:42;;;;;;;;;;;6.50;91.50;;;;;;5052064;28;20301;-69
2020/12/26 06:25:11;;;;;;;;;;;6.60;91.80;;;;;;5046093;28;19925;-70
2020/12/26 06:27:43;;;;;;;;;;;6.50;91.90;;;;;;5048564;28;19932;-69
2020/12/26 06:30:09;;;;;;;;;;;6.50;92.10;;;;;;5054899;28;20019;-69
2020/12/26 06:32:36;;;;;;;;;;;6.50;92.10;;;;;;5040909;28;19935;-69
2020/12/26 06:35:02;;;;;;;;;;;6.50;92.20;;;;;;5052555;28;19935;-69
2020/12/26 06:37:28;;;;;;;;;;;6.50;92.10;;;;;;5049934;28;20015;-69
2020/12/26 06:39:54;;;;;;;;;;;6.60;92.40;;;;;;5045976;28;20309;-69
2020/12/26 06:42:23;;;;;;;;;;;6.50;92.00;;;;;;5052528;28;20204;-69
2020/12/26 06:44:50;;;;;;;;;;;6.50;92.00;;;;;;5054623;28;19924;-69
2020/12/26 06:47:43;;;;;;;;;;;6.40;92.20;;;;;;5040698;28;19935;-69
2020/12/26 06:50:22;;;;;;;;;;;6.40;92.30;;;;;;5016602;28;19990;-69
2020/12/26 06:52:49;;;;;;;;;;;6.40;92.50;;;;;;5054559;28;19925;-69
2020/12/26 06:55:34;;;;;;;;;;;6.40;92.50;;;;;;5040251;28;20314;-69
2020/12/26 06:58:01;;;;;;;;;;;6.40;92.40;;;;;;5045054;28;20266;-69
2020/12/26 07:00:28;;;;;;;;;;;6.40;92.50;;;;;;5047743;28;20392;-69
2020/12/26 07:03:15;;;;;;;;;;;6.40;92.30;;;;;;5053811;28;19955;-69
2020/12/26 07:05:42;;;;;;;;;;;6.40;92.40;;;;;;5044602;28;19932;-69
2020/12/26 07:08:09;;;;;;;;;;;6.30;92.70;;;;;;5050413;28;19986;-69
2020/12/26 07:10:35;;;;;;;;;;;6.30;92.60;;;;;;5051999;28;20371;-69
2020/12/26 07:13:02;;;;;;;;;;;6.30;92.80;;;;;;5053468;28;19925;-69
2020/12/26 07:15:31;;;;;;;;;;;6.10;92.90;;;;;;5046955;28;20229;-69
2020/12/26 07:18:21;;;;;;;;;;;6.10;93.10;;;;;;5051044;28;19929;-69
2020/12/26 07:20:48;;;;;;;;;;;5.90;93.00;;;;;;5057765;28;20276;-69
2020/12/26 07:23:15;;;;;;;;;;;5.80;93.30;;;;;;5041215;28;20271;-69
2020/12/26 07:25:42;;;;;;;;;;;5.90;93.40;;;;;;5040039;28;20355;-69
2020/12/26 07:28:10;;;;;;;;;;;5.80;93.40;;;;;;5049594;28;20262;-69
2020/12/26 07:30:36;;;;;;;;;;;5.90;93.60;;;;;;5052745;28;19925;-68
2020/12/26 07:33:03;;;;;;;;;;;5.90;93.80;;;;;;5040660;28;19925;-69
2020/12/26 07:35:33;;;;;;;;;;;5.90;93.70;;;;;;5050159;28;20335;-69
2020/12/26 07:38:01;;;;;;;;;;;5.90;93.50;;;;;;5053069;28;19982;-69
2020/12/26 07:40:27;;;;;;;;;;;5.90;93.50;;;;;;5042589;28;19929;-69
2020/12/26 07:42:54;;;;;;;;;;;5.90;93.70;;;;;;5050874;28;19925;-69
2020/12/26 07:45:21;;;;;;;;;;;6.00;93.60;;;;;;5052351;28;19925;-69
2020/12/26 07:47:49;;;;;;;;;;;6.00;93.70;;;;;;5048638;28;19929;-69
2020/12/26 07:50:16;;;;;;;;;;;6.00;93.70;;;;;;5046148;28;19933;-69
2020/12/26 07:52:45;;;;;;;;;;;6.00;93.80;;;;;;5039664;28;19935;-69
2020/12/26 07:55:11;;;;;;;;;;;6.00;94.20;;;;;;5040677;28;20237;-70
2020/12/26 07:57:37;;;;;;;;;;;6.00;94.00;;;;;;5048439;28;19936;-70
2020/12/26 08:00:04;;;;;;;;;;;6.00;94.10;;;;;;5038771;28;19933;-69
2020/12/26 08:02:31;;;;;;;;;;;6.00;94.00;;;;;;5051552;28;19928;-69
2020/12/26 08:04:57;;;;;;;;;;;6.00;94.40;;;;;;5048826;28;19928;-69
2020/12/26 08:07:24;;;;;;;;;;;6.10;94.30;;;;;;5047699;28;19935;-69
2020/12/26 08:09:50;;;;;;;;;;;6.10;94.30;;;;;;5042980;28;20146;-69
2020/12/26 08:12:17;;;;;;;;;;;6.00;94.20;;;;;;5051600;28;21150;-69
2020/12/26 08:14:43;;;;;;;;;;;6.00;94.40;;;;;;5040659;28;20356;-70
2020/12/26 08:17:10;;;;;;;;;;;6.10;94.50;;;;;;5047975;28;19925;-69
2020/12/26 08:19:37;;;;;;;;;;;6.10;94.60;;;;;;5062577;28;19950;-69
2020/12/26 08:22:03;;;;;;;;;;;6.10;94.70;;;;;;5047189;28;20004;-69
2020/12/26 08:24:30;;;;;;;;;;;6.10;94.60;;;;;;5045780;28;19924;-70
2020/12/26 08:26:57;;;;;;;;;;;6.10;94.60;;;;;;5046656;28;19987;-70
2020/12/26 08:29:24;;;;;;;;;;;6.10;94.70;;;;;;5042701;28;19925;-69
2020/12/26 08:31:51;;;;;;;;;;;6.10;94.70;;;;;;5052338;28;19929;-69
2020/12/26 08:34:20;;;;;;;;;;;6.10;94.80;;;;;;5038868;28;20313;-69
2020/12/26 08:36:53;;;;;;;;;;;6.10;94.80;;;;;;5049766;28;20279;-69
2020/12/26 08:39:20;;;;;;;;;;;6.10;94.70;;;;;;5040189;28;19925;-70
2020/12/26 08:41:46;;;;;;;;;;;6.10;94.80;;;;;;5045149;28;19929;-69
2020/12/26 08:44:13;;;;;;;;;;;6.20;94.80;;;;;;5050343;28;20008;-69
2020/12/26 08:46:42;;;;;;;;;;;6.20;94.80;;;;;;5052847;28;20303;-69
2020/12/26 08:49:08;;;;;;;;;;;6.20;94.90;;;;;;5041266;28;19925;-69
2020/12/26 08:51:39;;;;;;;;;;;6.30;95.00;;;;;;5044976;28;20370;-70
2020/12/26 08:54:06;;;;;;;;;;;6.40;94.60;;;;;;5045880;28;19951;-69
2020/12/26 08:56:33;;;;;;;;;;;6.40;94.70;;;;;;5044508;28;19979;-70
2020/12/26 08:58:59;;;;;;;;;;;6.40;94.70;;;;;;5034584;28;20359;-69
2020/12/26 09:01:26;;;;;;;;;;;6.40;94.70;;;;;;5043904;28;20016;-69
2020/12/26 09:03:52;;;;;;;;;;;6.50;94.80;;;;;;5048385;28;19958;-70
2020/12/26 09:06:29;;;;;;;;;;;6.50;94.70;;;;;;5051690;28;19935;-69
2020/12/26 09:08:55;;;;;;;;;;;6.60;94.70;;;;;;5049156;28;19933;-70
2020/12/26 09:11:27;;;;;;;;;;;6.60;94.50;;;;;;5042231;28;20000;-70
2020/12/26 09:13:54;;;;;;;;;;;6.60;94.60;;;;;;5051657;28;19925;-70
2020/12/26 09:16:20;;;;;;;;;;;6.70;94.30;;;;;;5041171;28;19951;-70
2020/12/26 09:18:47;;;;;;;;;;;6.70;94.30;;;;;;5049893;28;20373;-69
2020/12/26 09:21:20;;;;;;;;;;;6.70;94.40;;;;;;5045007;28;19952;-70
2020/12/26 09:23:47;;;;;;;;;;;6.80;94.40;;;;;;5046996;28;20362;-69
2020/12/26 09:26:14;;;;;;;;;;;6.80;94.10;;;;;;5051807;28;20414;-70
2020/12/26 09:28:48;;;;;;;;;;;6.80;94.20;;;;;;5046479;28;19925;-70
2020/12/26 09:31:15;;;;;;;;;;;6.90;94.00;;;;;;5045323;28;19925;-69
2020/12/26 09:33:42;;;;;;;;;;;6.90;94.10;;;;;;5052367;28;19931;-70
2020/12/26 09:36:10;;;;;;;;;;;6.90;94.20;;;;;;5039926;28;19982;-70
2020/12/26 09:38:36;;;;;;;;;;;7.00;93.70;;;;;;5052352;28;20374;-69
2020/12/26 09:41:09;;;;;;;;;;;7.00;93.20;;;;;;5038456;28;19935;-69
2020/12/26 09:43:35;;;;;;;;;;;7.00;93.50;;;;;;5052045;28;19925;-69
2020/12/26 09:46:02;;;;;;;;;;;6.90;93.30;;;;;;5051467;28;20019;-70
2020/12/26 09:48:28;;;;;;;;;;;6.90;93.50;;;;;;5043162;28;19935;-69
2020/12/26 09:50:54;;;;;;;;;;;7.00;93.70;;;;;;5050694;28;19929;-71
2020/12/26 09:53:21;;;;;;;;;;;7.00;93.50;;;;;;5045149;28;19932;-71
2020/12/26 09:55:47;;;;;;;;;;;7.00;93.70;;;;;;5044459;28;19925;-71
2020/12/26 09:58:13;;;;;;;;;;;7.10;93.30;;;;;;5046756;28;19925;-71
2020/12/26 10:00:39;;;;;;;;;;;7.10;93.30;;;;;;5044499;28;19925;-72
2020/12/26 10:03:06;;;;;;;;;;;7.20;93.30;;;;;;5054468;28;19935;-71
2020/12/26 10:05:32;;;;;;;;;;;7.20;93.10;;;;;;5052311;28;19978;-72
2020/12/26 10:07:59;;;;;;;;;;;7.30;93.40;;;;;;5045182;28;19932;-71
2020/12/26 10:10:26;;;;;;;;;;;7.30;93.10;;;;;;5048788;28;20019;-71
2020/12/26 10:12:52;;;;;;;;;;;7.30;92.70;;;;;;5054988;28;19982;-71
2020/12/26 10:15:18;;;;;;;;;;;7.40;93.00;;;;;;5047295;28;20025;-71
2020/12/26 10:17:44;;;;;;;;;;;7.40;92.80;;;;;;5051291;28;20347;-71
2020/12/26 10:20:12;;;;;;;;;;;7.40;92.50;;;;;;5065617;28;19938;-72
2020/12/26 10:22:38;;;;;;;;;;;7.40;92.80;;;;;;5043546;28;19951;-71
2020/12/26 10:25:04;;;;;;;;;;;7.40;92.70;;;;;;5052582;28;20370;-71
2020/12/26 10:27:30;;;;;;;;;;;7.30;92.60;;;;;;5043871;28;20016;-71
2020/12/26 10:29:56;;;;;;;;;;;7.40;92.40;;;;;;5049577;28;19948;-72
2020/12/26 10:32:23;;;;;;;;;;;7.40;92.50;;;;;;5054908;28;19924;-72
2020/12/26 10:34:49;;;;;;;;;;;7.30;92.60;;;;;;5041176;28;19935;-72
2020/12/26 10:37:16;;;;;;;;;;;7.30;92.70;;;;;;5051819;28;19990;-71
2020/12/26 10:39:43;;;;;;;;;;;7.30;92.90;;;;;;5044029;28;20020;-71
2020/12/26 10:42:09;;;;;;;;;;;7.30;93.00;;;;;;5048074;28;19947;-71
2020/12/26 10:44:35;;;;;;;;;;;7.30;93.20;;;;;;5054150;28;19987;-71
2020/12/26 10:47:01;;;;;;;;;;;7.40;93.60;;;;;;5041135;28;19925;-71
2020/12/26 10:49:28;;;;;;;;;;;7.40;93.50;;;;;;5051152;28;20038;-71
2020/12/26 10:51:54;;;;;;;;;;;7.40;93.60;;;;;;5042138;28;19925;-71
2020/12/26 10:54:21;;;;;;;;;;;7.40;93.60;;;;;;5047010;28;19935;-71
2020/12/26 10:56:47;;;;;;;;;;;7.40;93.70;;;;;;5036376;28;19929;-71
2020/12/26 10:59:14;;;;;;;;;;;7.40;93.70;;;;;;5045606;28;20282;-72
2020/12/26 11:01:40;;;;;;;;;;;7.50;93.80;;;;;;5048970;28;20015;-71
2020/12/26 11:04:06;;;;;;;;;;;7.40;93.70;;;;;;5052832;28;19929;-71
2020/12/26 11:06:32;;;;;;;;;;;7.50;93.80;;;;;;5044199;28;19932;-72
2020/12/26 11:08:59;;;;;;;;;;;7.50;93.70;;;;;;5048243;28;20455;-72
2020/12/26 11:11:26;;;;;;;;;;;7.50;93.80;;;;;;5052992;28;20262;-71
2020/12/26 11:13:52;;;;;;;;;;;7.50;94.00;;;;;;5046310;28;19925;-72
2020/12/26 11:16:18;;;;;;;;;;;7.50;94.10;;;;;;5047405;28;19925;-71
2020/12/26 11:18:45;;;;;;;;;;;7.50;94.40;;;;;;5056396;28;19931;-71
2020/12/26 11:21:15;;;;;;;;;;;7.40;94.60;;;;;;5057636;28;19931;-69
2020/12/26 11:23:41;;;;;;;;;;;7.40;94.80;;;;;;5041722;28;19970;-70
2020/12/26 11:26:07;;;;;;;;;;;7.40;95.00;;;;;;5052348;28;19925;-70
2020/12/26 11:28:34;;;;;;;;;;;7.40;95.20;;;;;;5042092;28;19933;-69
2020/12/26 11:31:00;;;;;;;;;;;7.40;95.30;;;;;;5052688;28;19925;-70
2020/12/26 11:33:27;;;;;;;;;;;7.30;95.20;;;;;;5045380;28;19929;-71
2020/12/26 11:35:53;;;;;;;;;;;7.30;95.20;;;;;;5048235;28;19935;-69
2020/12/26 11:38:20;;;;;;;;;;;7.40;95.30;;;;;;5053411;28;19924;-70
2020/12/26 11:40:46;;;;;;;;;;;7.30;95.30;;;;;;5039825;28;19935;-69
2020/12/26 11:43:12;;;;;;;;;;;7.20;95.10;;;;;;5053459;28;19925;-70
2020/12/26 11:45:39;;;;;;;;;;;7.20;95.40;;;;;;5051199;28;20327;-70
2020/12/26 11:48:05;;;;;;;;;;;7.10;95.80;;;;;;5042008;28;19925;-69
2020/12/26 11:50:32;;;;;;;;;;;7.20;95.80;;;;;;5047646;28;19925;-69
2020/12/26 11:52:58;;;;;;;;;;;7.10;95.70;;;;;;5041530;28;20357;-70
2020/12/26 11:55:25;;;;;;;;;;;7.20;96.00;;;;;;5039460;28;19939;-69
2020/12/26 11:57:51;;;;;;;;;;;7.20;96.00;;;;;;5052801;28;19935;-70
2020/12/26 12:00:17;;;;;;;;;;;7.20;96.00;;;;;;5040081;28;19929;-70
2020/12/26 12:02:44;;;;;;;;;;;7.20;96.00;;;;;;5052737;28;19929;-69
2020/12/26 12:05:10;;;;;;;;;;;7.20;96.10;;;;;;5051981;28;20266;-69
2020/12/26 12:07:36;;;;;;;;;;;7.20;96.20;;;;;;5042859;28;19924;-70
2020/12/26 12:10:03;;;;;;;;;;;7.10;96.10;;;;;;5047622;28;20020;-69
2020/12/26 12:12:29;;;;;;;;;;;7.10;96.20;;;;;;5053123;28;20016;-69
2020/12/26 12:14:55;;;;;;;;;;;7.10;96.30;;;;;;5038828;28;20020;-69
2020/12/26 12:17:21;;;;;;;;;;;7.10;96.30;;;;;;5052342;28;19935;-69
2020/12/26 12:19:48;;;;;;;;;;;7.10;96.30;;;;;;5052238;28;20003;-70
2020/12/26 12:22:15;;;;;;;;;;;7.10;96.30;;;;;;5047588;28;19925;-69
2020/12/26 12:24:42;;;;;;;;;;;7.10;96.50;;;;;;5050192;28;20202;-70
2020/12/26 12:27:09;;;;;;;;;;;7.10;96.50;;;;;;5043808;28;20019;-70
2020/12/26 12:29:35;;;;;;;;;;;7.10;96.90;;;;;;5048053;28;19926;-69
2020/12/26 12:32:01;;;;;;;;;;;7.10;96.70;;;;;;5052038;28;19924;-70
2020/12/26 12:34:27;;;;;;;;;;;7.10;96.80;;;;;;5039602;28;20378;-71
2020/12/26 12:36:54;;;;;;;;;;;7.30;96.70;;;;;;5043979;28;19932;-70
2020/12/26 12:39:20;;;;;;;;;;;7.20;96.70;;;;;;5046587;28;19925;-71
2020/12/26 12:41:51;;;;;;;;;;;7.30;96.90;;;;;;5042679;28;19939;-70
2020/12/26 12:44:18;;;;;;;;;;;7.20;96.80;;;;;;5052563;28;20427;-70
2020/12/26 12:46:44;;;;;;;;;;;7.30;96.90;;;;;;5040705;28;19943;-71
2020/12/26 12:49:10;;;;;;;;;;;7.30;96.80;;;;;;5046812;28;19925;-71
2020/12/26 12:51:36;;;;;;;;;;;7.40;96.70;;;;;;5042789;28;20027;-71
2020/12/26 12:54:03;;;;;;;;;;;7.40;96.50;;;;;;5042864;28;19935;-71
2020/12/26 12:56:30;;;;;;;;;;;7.40;96.40;;;;;;5049403;28;20070;-70
2020/12/26 12:58:56;;;;;;;;;;;7.30;96.20;;;;;;5042983;28;19987;-70
2020/12/26 13:01:22;;;;;;;;;;;7.30;96.70;;;;;;5047967;28;19924;-70
2020/12/26 13:03:48;;;;;;;;;;;7.30;96.70;;;;;;5050464;28;19925;-70
2020/12/26 13:06:16;;;;;;;;;;;7.30;96.70;;;;;;5044164;28;19925;-70
2020/12/26 13:08:42;;;;;;;;;;;7.30;97.00;;;;;;5045783;28;20024;-71
2020/12/26 13:11:09;;;;;;;;;;;7.30;96.90;;;;;;5051255;28;19935;-70
2020/12/26 13:13:35;;;;;;;;;;;7.30;97.00;;;;;;5046554;28;19998;-70
2020/12/26 13:16:01;;;;;;;;;;;7.20;96.80;;;;;;5044400;28;19925;-70
2020/12/26 13:18:28;;;;;;;;;;;7.30;97.00;;;;;;5038857;28;20016;-70
2020/12/26 13:20:54;;;;;;;;;;;7.20;96.90;;;;;;5051343;28;20368;-70
2020/12/26 13:23:20;;;;;;;;;;;7.20;97.00;;;;;;5046487;28;19936;-70
2020/12/26 13:25:46;;;;;;;;;;;7.20;97.00;;;;;;5055449;28;19925;-71
2020/12/26 13:28:13;;;;;;;;;;;7.20;97.20;;;;;;5054278;28;20008;-70
2020/12/26 13:30:39;;;;;;;;;;;7.20;97.30;;;;;;5044776;28;19925;-70
2020/12/26 13:33:06;;;;;;;;;;;7.30;97.40;;;;;;5055400;28;20318;-70
2020/12/26 13:35:32;;;;;;;;;;;7.30;97.20;;;;;;5047201;28;19936;-70
2020/12/26 13:37:58;;;;;;;;;;;7.30;97.10;;;;;;5048992;28;19924;-71
2020/12/26 13:40:24;;;;;;;;;;;7.40;97.40;;;;;;5040630;28;19925;-70
2020/12/26 13:42:50;;;;;;;;;;;7.40;97.30;;;;;;5050849;28;20347;-71
2020/12/26 13:45:18;;;;;;;;;;;7.50;97.10;;;;;;5048008;28;19925;-71
2020/12/26 13:47:44;;;;;;;;;;;7.50;97.00;;;;;;5049226;28;19960;-71
2020/12/26 13:50:10;;;;;;;;;;;7.40;96.80;;;;;;5047383;28;20036;-70
2020/12/26 13:52:36;;;;;;;;;;;7.40;96.80;;;;;;5041951;28;19925;-71
2020/12/26 13:55:02;;;;;;;;;;;7.40;96.80;;;;;;5050988;28;19925;-70
2020/12/26 13:57:29;;;;;;;;;;;7.40;96.80;;;;;;5058532;28;20480;-70
2020/12/26 13:59:55;;;;;;;;;;;7.40;96.80;;;;;;5043414;28;19925;-71
2020/12/26 14:02:22;;;;;;;;;;;7.40;96.80;;;;;;5052281;28;19931;-70
2020/12/26 14:04:48;;;;;;;;;;;7.50;96.90;;;;;;5051877;28;19924;-71
2020/12/26 14:07:14;;;;;;;;;;;7.50;96.90;;;;;;5041997;28;19936;-71
2020/12/26 14:09:41;;;;;;;;;;;7.50;96.80;;;;;;5047743;28;19929;-70
2020/12/26 14:12:07;;;;;;;;;;;7.50;96.80;;;;;;5048900;28;20409;-70
2020/12/26 14:14:33;;;;;;;;;;;7.60;97.20;;;;;;5048131;28;20016;-70
2020/12/26 14:16:59;;;;;;;;;;;7.60;96.60;;;;;;5050592;28;20011;-70
2020/12/26 14:19:26;;;;;;;;;;;7.60;96.40;;;;;;5046048;28;20355;-70
2020/12/26 14:21:53;;;;;;;;;;;7.60;96.40;;;;;;5047872;28;19929;-70
2020/12/26 14:24:19;;;;;;;;;;;7.60;96.50;;;;;;5044141;28;19928;-70
2020/12/26 14:26:46;;;;;;;;;;;7.60;96.50;;;;;;5052309;28;19936;-70
2020/12/26 14:29:12;;;;;;;;;;;7.60;96.20;;;;;;5045360;28;19935;-70